Time,TemperatureF,DewpointF,PressureIn,WindDirection,WindDirectionDegrees,WindSpeedMPH,WindSpeedGustMPH,Humidity,HourlyPrecipIn,Conditions,Clouds,dailyrainin,SoftwareType,DateUTC
2013-08-20 05:52:00,64.0,59.0,30.01,North,0,0.0,0.0,85,0.00,,,0.00,,2013-08-20 10:52:00,
2013-08-20 06:22:00,65.0,60.0,30.02,North,0,0.0,0.0,84,0.00,,,0.00,,2013-08-20 11:22:00,
2013-08-20 06:33:00,65.0,60.0,30.02,North,0,0.0,0.0,84,0.00,,,0.00,,2013-08-20 11:33:00,
2013-08-20 06:51:00,65.0,60.0,30.02,North,0,0.0,0.0,84,0.00,,,0.00,,2013-08-20 11:51:00,
2013-08-20 07:21:00,65.0,60.0,30.04,North,0,0.0,0.0,83,0.00,,,0.00,,2013-08-20 12:21:00,
2013-08-20 07:52:00,66.0,61.0,30.04,North,0,0.0,0.0,83,0.00,,,0.00,,2013-08-20 12:52:00,
2013-08-20 08:21:00,71.0,64.0,30.04,North,0,0.0,0.0,78,0.00,,,0.00,,2013-08-20 13:21:00,
2013-08-20 08:52:00,70.0,63.0,30.05,SSE,151,0.0,2.0,78,0.00,,,0.00,,2013-08-20 13:52:00,
2013-08-20 09:21:00,71.0,64.0,30.04,SSE,150,0.0,2.0,78,0.00,,,0.00,,2013-08-20 14:21:00,
2013-08-20 09:52:00,73.0,65.0,30.04,SE,145,1.0,4.0,75,0.00,,,0.00,,2013-08-20 14:52:00,
2013-08-20 10:22:00,75.0,65.0,30.03,SE,146,1.0,4.0,71,0.00,,,0.00,,2013-08-20 15:22:00,
2013-08-20 10:53:00,78.0,67.0,30.03,SSE,150,1.0,5.0,68,0.00,,,0.00,,2013-08-20 15:53:00,
2013-08-20 11:30:00,-999.0,-99.9,30.03,SSE,154,0.0,3.0,65,0.00,,,0.00,,2013-08-20 16:30:00,
2013-08-20 11:53:00,83.0,68.0,30.03,SSW,199,0.0,4.0,60,0.00,,,0.57,,2013-08-20 16:53:00,
2013-08-20 12:24:00,85.0,68.0,30.02,SW,214,1.0,5.0,57,0.00,,,0.57,,2013-08-20 17:24:00,
2013-08-20 12:52:00,86.0,67.0,30.02,SW,217,1.0,5.0,54,0.00,,,0.57,,2013-08-20 17:52:00,
2013-08-20 13:22:00,87.0,68.0,30.01,SSW,193,1.0,4.0,53,0.00,,,0.57,,2013-08-20 18:22:00,
2013-08-20 13:52:00,87.0,67.0,30.01,South,172,1.0,5.0,52,0.00,,,0.57,,2013-08-20 18:52:00,
2013-08-20 14:21:00,88.0,68.0,30.00,SSE,160,1.0,5.0,52,0.00,,,0.57,,2013-08-20 19:21:00,
2013-08-20 14:53:00,87.0,67.0,29.99,SSE,159,1.0,6.0,52,0.00,,,0.00,,2013-08-20 19:53:00,
2013-08-20 15:22:00,87.0,67.0,29.99,SSE,161,2.0,5.0,52,0.00,,,0.00,,2013-08-20 20:22:00,
2013-08-20 15:52:00,86.0,67.0,29.98,SSE,154,2.0,5.0,53,0.00,,,0.00,,2013-08-20 20:52:00,
2013-08-20 16:22:00,86.0,67.0,29.98,SSE,158,2.0,6.0,53,0.00,,,0.00,,2013-08-20 21:22:00,
2013-08-20 16:55:00,86.0,67.0,29.97,SSE,158,1.0,6.0,54,0.00,,,0.00,,2013-08-20 21:55:00,
2013-08-20 17:24:00,85.0,66.0,29.97,SSE,154,1.0,5.0,54,0.00,,,0.00,,2013-08-20 22:24:00,
2013-08-20 17:53:00,85.0,67.0,29.97,SSE,166,2.0,5.0,55,0.00,,,0.00,,2013-08-20 22:53:00,
2013-08-20 18:22:00,84.0,67.0,29.97,SSE,159,2.0,4.0,56,0.00,,,0.00,,2013-08-20 23:22:00,
2013-08-20 18:53:00,83.0,67.0,29.96,SSE,152,1.0,4.0,58,0.00,,,0.00,,2013-08-20 23:53:00,
2013-08-20 19:22:00,83.0,67.0,29.96,SSE,149,1.0,4.0,59,0.00,,,0.00,,2013-08-21 00:22:00,
2013-08-20 19:52:00,81.0,66.0,29.96,SSE,152,1.0,5.0,60,0.00,,,0.00,,2013-08-21 00:52:00,
2013-08-20 20:21:00,80.0,66.0,29.97,SSE,156,1.0,3.0,62,0.00,,,0.00,,2013-08-21 01:21:00,
2013-08-20 20:52:00,79.0,66.0,29.98,SE,135,0.0,2.0,64,0.00,,,0.00,,2013-08-21 01:52:00,
2013-08-20 21:12:00,79.0,66.0,29.98,SE,135,0.0,2.0,64,0.00,,,0.00,,2013-08-21 02:12:00,
2013-08-20 21:22:00,79.0,66.0,29.98,SE,135,0.0,2.0,64,0.00,,,0.00,,2013-08-21 02:22:00,
2013-08-20 21:32:00,79.0,66.0,29.98,SE,135,0.0,2.0,64,0.00,,,0.00,,2013-08-21 02:32:00,